Time;durP1;ratioP1;P1;durP2;ratioP2;P2;SDS_P1;SDS_P2;PMS_P1;PMS_P2;Temp;Humidity;BMP_temperature;BMP_pressure;BME280_temperature;BME280_humidity;BME280_pressure;Samples;Min_cycle;Max_cycle;Signal;HPM_P1;HPM_P2
2022/10/14 00:01:07;;;;;;;1.73;1.63;;;;;;;9.68;100.00;100238.59;4929177;29;20118;-86
2022/10/14 00:03:33;;;;;;;2.08;1.90;;;;;;;9.72;100.00;100252.38;4949146;28;20597;-86
2022/10/14 00:05:58;;;;;;;0.55;0.55;;;;;;;9.69;100.00;100242.16;4945852;29;20043;-86
2022/10/14 00:08:24;;;;;;;1.83;1.73;;;;;;;9.74;100.00;100241.66;4932206;29;20031;-86
2022/10/14 00:10:50;;;;;;;0.85;0.85;;;;;;;9.75;100.00;100237.66;4931636;29;20462;-86
2022/10/14 00:13:16;;;;;;;0.82;0.80;;;;;;;9.75;100.00;100243.19;4930739;29;20031;-86
2022/10/14 00:15:41;;;;;;;2.95;2.38;;;;;;;9.77;100.00;100246.34;4946800;29;20043;-86
2022/10/14 00:18:08;;;;;;;2.83;2.63;;;;;;;9.83;100.00;100244.63;4928761;29;20114;-86
2022/10/14 00:20:34;;;;;;;1.05;1.02;;;;;;;9.84;100.00;100241.44;4946112;28;20485;-86
2022/10/14 00:23:00;;;;;;;2.10;1.90;;;;;;;9.91;100.00;100240.50;4949147;29;20042;-86
2022/10/14 00:25:26;;;;;;;5.30;1.63;;;;;;;9.94;100.00;100245.22;4927358;29;20032;-86
2022/10/14 00:27:52;;;;;;;2.92;1.73;;;;;;;9.92;100.00;100241.28;4931762;29;20075;-86
2022/10/14 00:30:18;;;;;;;2.25;1.88;;;;;;;9.83;100.00;100241.84;4930818;29;20043;-86
2022/10/14 00:32:43;;;;;;;1.30;1.20;;;;;;;9.86;100.00;100232.72;4930042;29;20032;-86
2022/10/14 00:35:09;;;;;;;2.15;1.83;;;;;;;9.89;100.00;100236.59;4914368;28;20426;-86
2022/10/14 00:37:34;;;;;;;1.25;1.17;;;;;;;9.87;100.00;100239.78;4911393;29;20054;-86
2022/10/14 00:40:00;;;;;;;1.95;1.75;;;;;;;9.81;100.00;100230.44;4933518;29;20086;-86
2022/10/14 00:42:31;;;;;;;1.75;1.55;;;;;;;9.81;100.00;100235.97;4949892;29;20074;-86
2022/10/14 00:45:04;;;;;;;4.00;2.13;;;;;;;9.74;100.00;100230.56;4932333;29;20152;-86
2022/10/14 00:47:32;;;;;;;1.58;1.48;;;;;;;9.63;100.00;100230.00;4932323;29;20042;-86
2022/10/14 00:49:59;;;;;;;2.00;1.77;;;;;;;9.65;100.00;100225.59;4917708;29;21876;-87
2022/10/14 00:52:27;;;;;;;3.28;2.25;;;;;;;9.70;100.00;100227.88;4933556;29;21905;-86
2022/10/14 00:54:57;;;;;;;7.43;2.70;;;;;;;9.73;100.00;100234.56;4934728;29;20070;-86
2022/10/14 00:57:24;;;;;;;2.08;1.75;;;;;;;9.68;100.00;100232.28;4936838;29;20039;-86
2022/10/14 00:59:50;;;;;;;1.33;1.23;;;;;;;9.64;100.00;100237.88;4935727;29;20031;-86
2022/10/14 01:40:28;;;;;;;1.98;1.88;;;;;;;9.84;100.00;100201.88;5012150;28;20517;-86
2022/10/14 01:42:56;;;;;;;0.85;0.85;;;;;;;9.83;100.00;100201.06;4971919;28;20065;-87
2022/10/14 01:45:22;;;;;;;4.55;2.75;;;;;;;9.88;100.00;100202.56;4996389;28;20117;-86
2022/10/14 01:47:49;;;;;;;2.85;2.65;;;;;;;9.99;100.00;100202.34;5014115;28;20173;-86
2022/10/14 01:50:17;;;;;;;1.67;1.58;;;;;;;10.05;100.00;100203.41;4980614;28;20554;-86
2022/10/14 01:52:47;;;;;;;3.10;2.90;;;;;;;10.11;100.00;100188.59;5013788;28;20033;-86
2022/10/14 01:55:17;;;;;;;2.70;2.38;;;;;;;10.13;100.00;100193.72;4999094;28;20033;-86
2022/10/14 01:57:43;;;;;;;2.70;2.20;;;;;;;10.04;100.00;100196.28;4989728;28;20049;-86
2022/10/14 02:00:10;;;;;;;2.97;2.72;;;;;;;9.93;100.00;100192.97;4988483;28;20099;-85
2022/10/14 02:02:41;;;;;;;5.22;2.67;;;;;;;9.63;100.00;100194.78;4993884;28;20049;-86
2022/10/14 02:05:13;;;;;;;2.97;1.73;;;;;;;9.59;100.00;100185.75;4977084;28;20042;-86
2022/10/14 02:07:42;;;;;;;2.67;1.25;;;;;;;9.42;100.00;100191.66;5008228;28;20076;-86
2022/10/14 02:10:13;;;;;;;3.22;2.20;;;;;;;9.41;100.00;100184.56;5002784;28;20041;-85
2022/10/14 02:13:08;;;;;;;1.40;1.33;;;;;;;9.41;100.00;100179.03;5026685;28;20137;-86
2022/10/14 02:15:55;;;;;;;1.67;1.30;;;;;;;9.40;100.00;100183.78;4981497;28;22071;-86
2022/10/14 02:18:29;;;;;;;1.65;1.45;;;;;;;9.37;100.00;100181.88;4994083;28;20045;-86
2022/10/14 02:20:57;;;;;;;0.73;0.73;;;;;;;9.41;100.00;100177.03;4976665;28;20049;-86
2022/10/14 02:23:27;;;;;;;2.00;1.88;;;;;;;9.36;100.00;100177.53;5024248;28;20409;-86
2022/10/14 02:25:54;;;;;;;3.75;2.33;;;;;;;9.45;100.00;100176.97;4996801;28;20045;-86
2022/10/14 02:28:22;;;;;;;2.92;2.72;;;;;;;9.54;100.00;100180.72;4992801;28;20099;-86
2022/10/14 02:30:56;;;;;;;1.02;1.02;;;;;;;9.65;100.00;100177.75;5012178;28;20041;-86
2022/10/14 02:33:21;;;;;;;;;;;;;;;9.71;100.00;100176.00;4978836;28;20065;-86
2022/10/14 02:35:48;;;;;;;1.80;1.70;;;;;;;9.71;100.00;100176.81;4978910;28;20167;-86
2022/10/14 02:38:15;;;;;;;2.75;2.58;;;;;;;9.65;100.00;100175.75;4992388;28;20447;-86
2022/10/14 02:40:46;;;;;;;2.30;2.10;;;;;;;9.46;100.00;100170.22;4992358;28;20056;-86
2022/10/14 02:43:12;;;;;;;1.05;1.05;;;;;;;9.34;100.00;100169.63;5013398;28;20042;-86
2022/10/14 02:45:38;;;;;;;2.28;2.15;;;;;;;9.33;100.00;100165.31;5014345;28;20404;-86
2022/10/14 02:48:05;;;;;;;1.55;1.45;;;;;;;9.14;100.00;100165.31;4982699;28;20124;-86
2022/10/14 02:50:31;;;;;;;1.00;1.00;;;;;;;9.10;100.00;100159.81;4996039;28;20042;-86
2022/10/14 02:52:56;;;;;;;1.58;1.48;;;;;;;9.07;100.00;100166.22;4979370;28;20033;-86
2022/10/14 02:55:22;;;;;;;0.60;0.60;;;;;;;8.98;100.00;100168.75;4996673;28;20489;-86
2022/10/14 02:57:47;;;;;;;2.03;1.92;;;;;;;8.93;100.00;100165.69;4989274;28;20050;-86
2022/10/14 03:00:13;;;;;;;1.75;1.65;;;;;;;8.85;100.00;100171.38;5001214;28;20060;-86
2022/10/14 03:02:40;;;;;;;1.88;1.75;;;;;;;8.85;100.00;100165.81;4993442;28;20045;-86
2022/10/14 03:05:07;;;;;;;1.55;1.10;;;;;;;8.82;100.00;100168.63;4993204;28;20495;-86
2022/10/14 03:07:32;;;;;;;1.05;1.05;;;;;;;8.80;100.00;100168.28;4994152;28;20068;-85
2022/10/14 03:10:02;;;;;;;0.47;0.47;;;;;;;8.82;100.00;100161.13;4984944;28;20140;-86
2022/10/14 03:12:29;;;;;;;1.50;1.40;;;;;;;8.86;100.00;100155.53;4993267;28;20041;-85
2022/10/14 03:14:55;;;;;;;1.17;0.93;;;;;;;8.89;100.00;100154.69;4962508;28;20049;-85
2022/10/14 03:17:23;;;;;;;1.45;1.35;;;;;;;8.87;100.00;100157.09;4995369;28;20037;-86
2022/10/14 03:19:49;;;;;;;1.33;1.05;;;;;;;8.80;100.00;100151.69;4992150;28;20498;-85
2022/10/14 03:22:15;;;;;;;1.10;1.10;;;;;;;8.82;100.00;100150.06;5029515;28;20077;-86
2022/10/14 03:24:40;;;;;;;4.10;2.33;;;;;;;8.84;100.00;100152.41;4991679;28;20111;-86
2022/10/14 03:27:23;;;;;;;2.08;1.92;;;;;;;8.86;100.00;100152.75;5000590;28;20041;-86
2022/10/14 03:29:53;;;;;;;4.15;2.33;;;;;;;8.86;100.00;100156.31;5000249;28;20040;-86
2022/10/14 03:32:22;;;;;;;3.85;2.47;;;;;;;8.80;100.00;100151.69;4978975;28;20037;-86
2022/10/14 03:35:06;;;;;;;2.05;1.92;;;;;;;8.76;100.00;100151.75;4997643;28;20514;-86
2022/10/14 03:37:34;;;;;;;1.50;1.40;;;;;;;8.81;100.00;100164.31;5023259;28;20058;-86
2022/10/14 03:40:02;;;;;;;2.80;1.65;;;;;;;8.79;100.00;100155.66;4993053;28;20427;-87
2022/10/14 03:42:30;;;;;;;2.20;1.45;;;;;;;8.79;100.00;100150.91;5006560;28;20036;-85
2022/10/14 03:44:55;;;;;;;1.88;1.77;;;;;;;8.75;100.00;100160.47;4994558;28;20049;-85
2022/10/14 03:47:25;;;;;;;0.60;0.60;;;;;;;8.71;100.00;100148.69;4994653;28;20049;-85
2022/10/14 03:49:51;;;;;;;1.83;1.67;;;;;;;8.73;100.00;100160.13;5023788;28;20220;-86
2022/10/14 03:52:22;;;;;;;6.85;2.13;;;;;;;8.70;100.00;100147.13;4992757;28;20045;-87
2022/10/14 03:54:58;;;;;;;1.63;1.52;;;;;;;8.71;100.00;100149.47;5011378;28;20136;-87
2022/10/14 03:57:24;;;;;;;4.60;1.73;;;;;;;8.73;100.00;100146.28;4996032;28;20422;-87
2022/10/14 03:59:54;;;;;;;2.65;1.77;;;;;;;8.73;100.00;100149.06;4981170;28;20040;-86
2022/10/14 04:02:21;;;;;;;2.88;2.67;;;;;;;8.70;100.00;100144.34;5021225;28;20119;-86
2022/10/14 04:04:49;;;;;;;2.05;1.95;;;;;;;8.69;100.00;100146.34;4983509;28;20118;-86
2022/10/14 04:07:17;;;;;;;2.88;1.92;;;;;;;8.73;100.00;100143.53;5017021;28;20037;-85
2022/10/14 04:09:49;;;;;;;2.40;2.08;;;;;;;8.79;100.00;100144.59;4995866;28;20129;-86
2022/10/14 04:12:15;;;;;;;5.22;3.83;;;;;;;8.94;100.00;100134.81;4988597;28;20054;-86
2022/10/14 04:14:55;;;;;;;1.98;1.63;;;;;;;9.06;100.00;100150.81;4992211;28;20038;-86
2022/10/14 04:17:25;;;;;;;3.08;2.85;;;;;;;9.04;100.00;100156.00;5002757;28;20034;-86
2022/10/14 04:19:51;;;;;;;3.95;3.15;;;;;;;8.99;100.00;100150.94;4980574;28;20537;-85
2022/10/14 04:22:18;;;;;;;4.55;1.65;;;;;;;8.97;100.00;100156.13;5009472;28;20124;-86
2022/10/14 04:24:48;;;;;;;6.00;2.47;;;;;;;8.87;100.00;100141.28;4994963;28;20048;-86
2022/10/14 04:27:14;;;;;;;1.80;1.70;;;;;;;8.79;100.00;100131.53;5013751;28;20073;-86
2022/10/14 04:29:46;;;;;;;1.50;1.40;;;;;;;8.71;100.00;100143.94;5013799;28;20057;-85
2022/10/14 04:32:22;;;;;;;3.53;3.22;;;;;;;8.67;100.00;100148.75;5002268;28;20048;-85
2022/10/14 04:34:48;;;;;;;1.90;1.80;;;;;;;8.58;100.00;100144.94;5017834;28;20041;-85
2022/10/14 04:37:17;;;;;;;0.55;0.55;;;;;;;8.55;100.00;100148.56;4996860;28;20136;-87
2022/10/14 04:39:57;;;;;;;3.15;2.85;;;;;;;8.53;100.00;100154.53;4999644;28;20136;-87
2022/10/14 04:42:23;;;;;;;2.78;2.13;;;;;;;8.44;100.00;100151.50;4990053;28;20140;-86
2022/10/14 04:44:52;;;;;;;1.88;1.67;;;;;;;8.37;100.00;100149.63;4999408;28;20037;-86
2022/10/14 04:47:25;;;;;;;2.25;1.60;;;;;;;8.38;100.00;100165.03;4972457;28;20072;-87
2022/10/14 04:49:59;;;;;;;1.52;1.27;;;;;;;8.33;100.00;100162.72;4988762;28;20049;-86
2022/10/14 04:52:26;;;;;;;1.40;1.30;;;;;;;8.28;100.00;100159.63;4971774;28;20148;-86
2022/10/14 04:54:58;;;;;;;1.63;1.52;;;;;;;8.21;100.00;100166.03;5003859;28;20042;-85
2022/10/14 04:57:39;;;;;;;1.60;1.50;;;;;;;8.14;100.00;100165.38;4992820;28;20574;-85
2022/10/14 05:00:05;;;;;;;1.65;1.55;;;;;;;8.14;100.00;100155.09;4988691;28;20103;-85
2022/10/14 05:02:51;;;;;;;1.83;1.73;;;;;;;8.23;100.00;100171.16;5017482;28;20197;-86
2022/10/14 05:05:18;;;;;;;1.25;1.23;;;;;;;8.28;100.00;100171.47;4986213;28;20744;-86
2022/10/14 05:07:48;;;;;;;1.33;1.30;;;;;;;8.27;100.00;100174.66;5012809;28;20589;-87
2022/10/14 05:10:21;;;;;;;1.98;1.35;;;;;;;8.27;100.00;100169.91;5016425;28;20046;-86
2022/10/14 05:12:46;;;;;;;1.08;1.00;;;;;;;8.27;100.00;100174.66;5005480;28;20061;-89
2022/10/14 05:15:12;;;;;;;1.33;1.23;;;;;;;8.18;100.00;100166.88;5011403;28;20065;-85
2022/10/14 05:17:47;;;;;;;1.48;1.33;;;;;;;8.26;100.00;100173.88;4983572;28;20554;-84
2022/10/14 05:20:16;;;;;;;1.17;1.08;;;;;;;8.18;100.00;100155.81;4998492;28;20049;-84
2022/10/14 05:22:45;;;;;;;1.50;1.42;;;;;;;8.11;100.00;100150.41;5006866;28;20046;-84
2022/10/14 05:25:10;;;;;;;2.42;2.30;;;;;;;8.06;100.00;100163.91;4997206;28;20104;-85
2022/10/14 05:27:36;;;;;;;2.42;1.38;;;;;;;7.99;100.00;100159.28;5012879;28;20430;-86
2022/10/14 05:30:03;;;;;;;1.45;1.35;;;;;;;7.96;100.00;100160.91;4994366;28;20053;-84
2022/10/14 05:32:29;;;;;;;1.58;1.48;;;;;;;7.93;100.00;100149.88;5012801;28;20132;-88
2022/10/14 05:35:01;;;;;;;4.25;3.33;;;;;;;7.87;100.00;100148.78;5015162;28;20041;-89
2022/10/14 05:37:33;;;;;;;1.60;1.50;;;;;;;7.91;100.00;100155.06;4998841;28;20049;-89
2022/10/14 05:39:58;;;;;;;6.15;1.88;;;;;;;7.84;100.00;100147.66;5004222;28;20141;-89
2022/10/14 05:42:25;;;;;;;2.92;2.42;;;;;;;7.82;100.00;100152.00;4962693;28;20045;-89
2022/10/14 05:44:54;;;;;;;0.82;0.63;;;;;;;7.92;100.00;100153.84;4979546;28;20030;-89
2022/10/14 05:47:22;;;;;;;2.33;2.13;;;;;;;8.00;100.00;100160.84;4979301;28;20046;-90
2022/10/14 05:49:51;;;;;;;0.85;0.85;;;;;;;8.06;100.00;100164.69;4963208;28;20036;-89
2022/10/14 05:52:16;;;;;;;1.58;1.23;;;;;;;8.15;100.00;100151.16;4993428;28;20042;-90
2022/10/14 05:54:43;;;;;;;2.72;2.22;;;;;;;8.28;100.00;100165.16;4979911;28;20521;-87
2022/10/14 05:57:11;;;;;;;3.05;2.25;;;;;;;8.35;100.00;100160.34;4997037;28;20048;-90
2022/10/14 05:59:37;;;;;;;2.38;2.15;;;;;;;8.45;100.00;100152.31;4997706;28;20049;-90
2022/10/14 06:02:03;;;;;;;1.48;1.15;;;;;;;8.54;100.00;100155.28;4980322;28;20563;-89
2022/10/14 06:04:28;;;;;;;2.97;2.78;;;;;;;8.62;100.00;100151.19;4995838;28;20049;-89
2022/10/14 06:06:55;;;;;;;1.13;1.13;;;;;;;8.75;100.00;100163.22;4994635;28;20092;-88
2022/10/14 06:09:20;;;;;;;1.63;1.52;;;;;;;8.87;100.00;100162.63;4977029;28;20128;-87
2022/10/14 06:11:46;;;;;;;1.63;1.52;;;;;;;9.06;100.00;100164.63;4992483;28;20495;-86
2022/10/14 06:14:12;;;;;;;1.42;1.33;;;;;;;9.13;100.00;100159.00;4999075;28;20041;-86
2022/10/14 06:16:38;;;;;;;1.73;1.63;;;;;;;9.27;100.00;100169.00;4980486;28;20049;-87
2022/10/14 06:19:06;;;;;;;1.60;1.50;;;;;;;9.37;100.00;100173.56;4977336;28;20073;-86
2022/10/14 06:21:31;;;;;;;3.63;3.25;;;;;;;9.50;100.00;100180.03;4962919;28;20139;-86
2022/10/14 06:23:57;;;;;;;2.67;1.73;;;;;;;9.57;100.00;100179.09;4980378;28;20065;-86
2022/10/14 06:26:22;;;;;;;1.60;1.50;;;;;;;9.54;100.00;100182.72;4979490;28;20042;-88
2022/10/14 06:28:48;;;;;;;3.60;2.10;;;;;;;9.65;100.00;100188.81;4993931;28;20046;-87
2022/10/14 06:31:13;;;;;;;1.70;1.60;;;;;;;9.71;100.00;100185.09;4978658;28;20092;-87
2022/10/14 06:33:40;;;;;;;3.33;3.03;;;;;;;9.77;100.00;100188.94;4978582;28;20068;-87
2022/10/14 06:36:06;;;;;;;1.00;1.00;;;;;;;9.88;100.00;100163.78;5011574;28;20678;-87
2022/10/14 06:38:32;;;;;;;2.22;2.00;;;;;;;10.01;100.00;100181.31;4994832;28;20151;-87
2022/10/14 06:40:57;;;;;;;0.65;0.65;;;;;;;10.14;100.00;100182.22;4980271;28;20065;-87
2022/10/14 06:43:22;;;;;;;2.20;1.83;;;;;;;10.24;100.00;100181.19;4997678;28;20045;-87
2022/10/14 06:45:48;;;;;;;1.10;1.10;;;;;;;10.39;100.00;100187.22;4982183;28;20064;-87
2022/10/14 06:48:14;;;;;;;2.47;1.80;;;;;;;10.58;100.00;100185.56;4997853;28;20049;-87
2022/10/14 06:50:40;;;;;;;1.92;1.55;;;;;;;10.74;100.00;100191.09;4997104;28;20595;-87
2022/10/14 06:53:06;;;;;;;1.80;1.70;;;;;;;10.72;100.00;100194.31;5012782;28;20045;-86
2022/10/14 06:55:31;;;;;;;0.80;0.80;;;;;;;10.64;100.00;100194.91;4981506;28;20048;-87
2022/10/14 06:57:57;;;;;;;7.28;3.38;;;;;;;10.65;100.00;100193.72;4982203;28;20045;-86
2022/10/14 07:00:23;;;;;;;2.25;2.05;;;;;;;10.64;100.00;100201.25;4994881;28;20100;-87
2022/10/14 07:02:48;;;;;;;2.67;1.95;;;;;;;10.74;100.00;100199.44;4995186;28;20034;-87
2022/10/14 07:05:14;;;;;;;5.53;3.20;;;;;;;10.91;100.00;100198.22;4994506;28;20037;-87
2022/10/14 07:07:39;;;;;;;1.92;1.83;;;;;;;11.12;100.00;100196.88;5010969;28;20057;-87
2022/10/14 07:10:05;;;;;;;2.97;2.47;;;;;;;11.13;100.00;100184.53;5015321;28;20050;-87
2022/10/14 07:12:31;;;;;;;2.33;2.13;;;;;;;11.15;100.00;100205.13;5034133;28;20037;-87
2022/10/14 07:14:57;;;;;;;2.50;2.28;;;;;;;11.28;100.00;100204.41;5000950;28;20491;-87
2022/10/14 07:17:22;;;;;;;1.92;1.83;;;;;;;11.49;100.00;100201.00;5033369;28;20434;-86
2022/10/14 07:19:47;;;;;;;3.20;2.42;;;;;;;11.70;100.00;100200.44;5033199;28;20088;-87
2022/10/14 07:22:15;;;;;;;9.10;2.70;;;;;;;11.69;100.00;100201.63;4999286;28;20418;-88
2022/10/14 07:24:40;;;;;;;1.13;1.13;;;;;;;11.65;100.00;100209.28;4977494;28;20077;-87
2022/10/14 07:27:08;;;;;;;1.55;1.42;;;;;;;11.54;100.00;100209.59;4977615;28;20065;-86
2022/10/14 07:29:33;;;;;;;1.77;1.67;;;;;;;11.64;100.00;100207.75;4993616;28;20050;-87
2022/10/14 07:31:59;;;;;;;1.48;1.38;;;;;;;11.83;100.00;100203.25;4994043;28;20077;-87
2022/10/14 07:34:25;;;;;;;2.88;2.58;;;;;;;12.17;100.00;100211.78;4995936;28;20076;-87
2022/10/14 07:36:50;;;;;;;3.28;2.65;;;;;;;12.37;100.00;100217.13;4996235;28;20061;-87
2022/10/14 07:39:16;;;;;;;2.13;1.70;;;;;;;12.48;100.00;100225.91;4978283;28;20044;-86
2022/10/14 07:41:41;;;;;;;6.82;2.75;;;;;;;12.74;100.00;100213.53;5011829;28;20049;-90
2022/10/14 07:44:08;;;;;;;3.53;2.95;;;;;;;12.98;100.00;100211.19;4996937;28;20048;-89
2022/10/14 07:46:36;;;;;;;1.90;1.75;;;;;;;13.07;100.00;100214.81;4996993;28;20049;-89
2022/10/14 07:49:21;;;;;;;3.35;2.83;;;;;;;13.26;100.00;100220.59;5013299;28;20502;-89
2022/10/14 07:51:47;;;;;;;4.00;1.88;;;;;;;13.45;100.00;100206.34;4997251;28;20049;-88
2022/10/14 07:54:19;;;;;;;2.88;2.00;;;;;;;13.52;100.00;100203.31;5030849;28;20050;-90
2022/10/14 07:56:48;;;;;;;4.57;3.42;;;;;;;13.45;100.00;100213.94;5018972;28;20042;-89
2022/10/14 07:59:14;;;;;;;6.55;1.55;;;;;;;13.57;100.00;100213.09;5020191;28;20033;-88
2022/10/14 08:01:39;;;;;;;3.53;2.80;;;;;;;13.59;100.00;100207.09;5016739;28;20041;-89
2022/10/14 08:04:05;;;;;;;3.60;3.33;;;;;;;13.63;100.00;100200.13;4984067;28;20033;-88
2022/10/14 08:06:31;;;;;;;1.80;1.50;;;;;;;13.89;100.00;100198.75;5017353;28;20046;-90
2022/10/14 08:08:56;;;;;;;2.45;2.22;;;;;;;14.15;100.00;100193.03;5017988;28;20042;-87
2022/10/14 08:11:24;;;;;;;2.15;2.00;;;;;;;14.42;100.00;100205.09;5008033;28;20056;-89
2022/10/14 08:13:50;;;;;;;1.52;1.35;;;;;;;14.68;100.00;100202.09;5000939;28;20065;-88
2022/10/14 08:16:22;;;;;;;2.30;2.15;;;;;;;15.09;100.00;100201.53;5002045;28;20601;-88
2022/10/14 08:18:48;;;;;;;5.78;1.95;;;;;;;15.32;100.00;100212.13;5002083;28;20045;-87
2022/10/14 08:21:14;;;;;;;2.30;2.00;;;;;;;15.37;100.00;100213.50;5017380;28;20084;-89
2022/10/14 08:23:40;;;;;;;1.98;1.75;;;;;;;15.61;100.00;100210.91;4984122;28;20053;-90
2022/10/14 08:26:28;;;;;;;2.25;1.75;;;;;;;15.88;100.00;100212.88;4984335;28;20426;-88
2022/10/14 08:28:54;;;;;;;1.48;1.38;;;;;;;16.18;100.00;100217.47;5000070;28;20064;-88
2022/10/14 08:31:20;;;;;;;3.63;3.05;;;;;;;16.34;100.00;100211.50;5000784;28;20491;-87
2022/10/14 08:33:45;;;;;;;2.92;1.95;;;;;;;16.33;100.00;100215.56;4983084;28;20038;-89
2022/10/14 08:36:11;;;;;;;4.22;2.13;;;;;;;16.48;100.00;100210.06;5016382;28;20708;-89
2022/10/14 08:38:36;;;;;;;1.75;1.58;;;;;;;16.59;100.00;100208.31;5014105;28;20061;-85
2022/10/14 08:41:11;;;;;;;3.13;2.10;;;;;;;16.91;100.00;100209.53;5000855;28;20041;-88
2022/10/14 08:43:52;;;;;;;1.05;0.70;;;;;;;16.85;100.00;100211.47;5001661;28;20045;-89
2022/10/14 08:46:43;;;;;;;2.28;1.60;;;;;;;16.95;100.00;100209.34;5018267;28;20052;-89
2022/10/14 08:49:17;;;;;;;1.65;1.48;;;;;;;17.20;100.00;100203.28;4999819;28;20052;-88
2022/10/14 08:51:46;;;;;;;2.83;1.65;;;;;;;17.18;100.00;100211.41;5001266;28;20041;-87
2022/10/14 08:54:16;;;;;;;3.42;2.78;;;;;;;17.27;100.00;100195.28;5017644;28;20061;-86
2022/10/14 08:56:42;;;;;;;1.90;1.80;;;;;;;17.75;100.00;100200.06;5018306;28;20111;-89
2022/10/14 08:59:14;;;;;;;2.45;2.25;;;;;;;17.93;100.00;100197.03;5018317;28;20045;-88
2022/10/14 09:01:48;;;;;;;3.03;2.55;;;;;;;17.94;100.00;100210.59;5018097;28;20092;-87
2022/10/14 09:04:15;;;;;;;1.20;1.10;;;;;;;18.15;100.00;100205.88;5017885;28;20180;-87
2022/10/14 09:06:43;;;;;;;2.08;1.65;;;;;;;17.50;100.00;100210.53;5000073;28;20376;-87
2022/10/14 09:09:29;;;;;;;2.95;1.38;;;;;;;17.48;100.00;100204.59;4999567;28;20038;-87
2022/10/14 09:11:58;;;;;;;4.88;2.10;;;;;;;18.02;100.00;100202.56;5031634;28;20071;-86
2022/10/14 09:14:26;;;;;;;3.28;1.95;;;;;;;18.16;100.00;100196.94;5035477;28;20086;-87
2022/10/14 09:16:56;;;;;;;4.68;3.28;;;;;;;18.11;100.00;100203.25;4999856;28;20045;-87
2022/10/14 09:19:28;;;;;;;1.73;1.63;;;;;;;18.19;100.00;100195.22;4999471;28;20045;-87
2022/10/14 09:21:54;;;;;;;6.15;3.05;;;;;;;18.25;100.00;100190.44;4998568;28;20099;-87
2022/10/14 09:24:22;;;;;;;3.58;2.40;;;;;;;18.57;100.00;100188.66;5000352;28;20513;-87
2022/10/14 09:26:51;;;;;;;2.45;1.85;;;;;;;18.50;100.00;100189.81;5000210;28;20124;-87
2022/10/14 09:29:28;;;;;;;2.60;2.38;;;;;;;18.37;100.00;100191.41;5000599;28;20041;-88
2022/10/14 09:31:57;;;;;;;5.22;2.17;;;;;;;18.52;100.00;100187.31;5001939;28;20037;-89
2022/10/14 09:34:28;;;;;;;3.10;1.98;;;;;;;18.88;100.00;100185.28;5000320;28;20047;-88
2022/10/14 09:36:59;;;;;;;5.90;3.38;;;;;;;19.21;100.00;100194.13;4984404;28;20038;-88
2022/10/14 09:39:26;;;;;;;2.05;1.50;;;;;;;18.84;100.00;100195.97;5005525;28;20072;-88
2022/10/14 09:41:53;;;;;;;4.63;2.88;;;;;;;19.04;100.00;100191.13;5019213;28;20156;-88
2022/10/14 09:44:21;;;;;;;4.32;2.33;;;;;;;19.59;96.60;100193.06;5000483;28;20049;-88
2022/10/14 09:46:58;;;;;;;3.75;2.92;;;;;;;19.74;94.99;100187.34;5016013;28;20034;-88
2022/10/14 09:49:45;;;;;;;4.43;2.28;;;;;;;19.73;94.71;100192.22;4999291;28;20049;-87
2022/10/14 09:52:24;;;;;;;3.92;2.42;;;;;;;19.39;97.39;100190.25;5001376;28;20069;-87
2022/10/14 09:54:57;;;;;;;2.75;2.55;;;;;;;19.69;95.94;100191.66;4999915;28;20480;-86
2022/10/14 09:57:23;;;;;;;2.78;2.42;;;;;;;19.72;94.27;100192.69;4981059;28;20049;-86
2022/10/14 09:59:53;;;;;;;1.92;1.65;;;;;;;19.42;94.56;100184.44;5014723;28;20041;-86
2022/10/14 10:02:21;;;;;;;4.43;4.00;;;;;;;19.62;95.58;100191.31;4998700;28;20443;-86
2022/10/14 10:04:48;;;;;;;6.10;2.97;;;;;;;19.59;94.15;100193.06;4998286;28;20045;-86
2022/10/14 10:07:33;;;;;;;1.45;1.20;;;;;;;19.76;91.72;100196.06;4998891;28;20092;-86
2022/10/14 10:10:03;;;;;;;2.47;1.85;;;;;;;19.95;92.63;100192.41;5014839;28;20424;-88
2022/10/14 10:12:34;;;;;;;3.08;1.95;;;;;;;20.17;90.81;100186.22;4998300;28;20111;-88
2022/10/14 10:15:04;;;;;;;2.63;2.22;;;;;;;20.06;90.47;100194.53;5013530;28;20076;-87
2022/10/14 10:17:34;;;;;;;2.67;2.00;;;;;;;20.18;88.36;100187.00;4998573;28;20495;-88
2022/10/14 10:20:18;;;;;;;5.40;2.70;;;;;;;20.39;88.05;100183.59;5014560;28;20037;-88
2022/10/14 10:22:44;;;;;;;2.47;2.15;;;;;;;20.37;86.08;100183.34;5032415;28;20099;-88
2022/10/14 10:25:10;;;;;;;1.17;1.08;;;;;;;20.17;87.31;100179.81;5014777;28;20049;-90
2022/10/14 10:27:40;;;;;;;4.40;2.30;;;;;;;20.02;87.01;100179.91;4995117;28;20600;-88
2022/10/14 10:30:22;;;;;;;6.80;3.38;;;;;;;20.61;83.49;100171.69;5015277;28;20050;-88
2022/10/14 10:33:02;;;;;;;1.48;1.38;;;;;;;20.46;84.72;100177.47;4999057;28;20420;-88
2022/10/14 10:36:29;;;;;;;1.40;1.25;;;;;;;20.63;81.12;100171.19;4998798;28;20045;-88
2022/10/14 10:39:18;;;;;;;2.58;2.22;;;;;;;20.61;81.63;100176.56;4952228;29;20106;-88
2022/10/14 10:41:57;;;;;;;1.50;1.40;;;;;;;20.39;82.98;100161.03;4952014;29;20480;-88
2022/10/14 10:44:51;;;;;;;1.60;1.13;;;;;;;20.71;82.42;100172.25;4968107;28;20085;-89
2022/10/14 10:47:44;;;;;;;3.30;2.75;;;;;;;20.66;79.25;100164.56;5011202;28;20396;-89
2022/10/14 10:50:21;;;;;;;2.10;1.60;;;;;;;20.73;77.22;100158.44;4991310;28;20049;-90
2022/10/14 10:53:08;;;;;;;3.17;2.35;;;;;;;20.23;80.98;100161.66;5012773;28;20101;-90
2022/10/14 10:55:37;;;;;;;2.33;2.03;;;;;;;20.29;81.47;100158.94;5012721;28;20065;-89
2022/10/14 10:58:44;;;;;;;1.92;1.58;;;;;;;20.64;78.11;100156.59;4995409;28;20055;-87
2022/10/14 11:01:35;;;;;;;0.82;0.82;;;;;;;20.56;72.62;100158.34;4996579;28;20052;-90
2022/10/14 11:04:18;;;;;;;2.33;2.13;;;;;;;20.41;70.81;100144.44;4998455;28;20499;-89
2022/10/14 11:12:55;;;;;;;1.88;1.42;;;;;;;20.63;71.70;100143.00;4996827;28;20056;-88
2022/10/14 11:15:31;;;;;;;5.82;2.28;;;;;;;20.66;68.83;100144.84;5012866;28;20406;-89
2022/10/14 11:18:00;;;;;;;1.55;1.45;;;;;;;20.68;69.60;100142.28;4997353;28;20053;-88
2022/10/14 11:20:41;;;;;;;1.85;1.67;;;;;;;20.72;68.66;100134.34;4997605;28;20061;-86
2022/10/14 11:23:16;;;;;;;3.80;3.45;;;;;;;20.79;69.54;100129.00;5021190;28;20057;-90
2022/10/14 11:25:52;;;;;;;3.13;2.20;;;;;;;20.69;72.01;100121.28;5029496;28;20041;-89
2022/10/14 11:28:28;;;;;;;2.22;2.03;;;;;;;20.98;71.63;100123.72;5047667;28;20041;-90
2022/10/14 11:31:24;;;;;;;3.47;2.22;;;;;;;20.43;73.48;100116.50;5036589;28;20050;-89
2022/10/14 11:34:06;;;;;;;2.33;2.13;;;;;;;20.40;74.68;100114.72;5013951;28;20124;-89
2022/10/14 11:36:54;;;;;;;2.45;2.25;;;;;;;20.55;74.77;100119.38;5014408;28;20052;-89
2022/10/14 11:39:38;;;;;;;3.17;2.50;;;;;;;20.79;71.63;100116.94;5023752;28;20208;-87
2022/10/14 11:42:22;;;;;;;2.97;1.95;;;;;;;20.69;71.58;100119.22;4980930;28;20038;-88
2022/10/14 11:45:09;;;;;;;2.10;1.95;;;;;;;20.77;71.49;100108.25;5014280;28;20049;-87
2022/10/14 11:47:38;;;;;;;3.55;2.08;;;;;;;21.10;71.13;100116.84;4974756;28;20038;-89
2022/10/14 11:50:21;;;;;;;4.60;2.45;;;;;;;21.12;69.40;100100.19;4994023;28;20066;-87
2022/10/14 11:53:34;;;;;;;3.90;3.05;;;;;;;21.22;67.93;100115.63;4977570;28;20054;-88
2022/10/14 11:56:08;;;;;;;4.65;2.55;;;;;;;21.09;66.83;100112.47;4880513;29;20044;-87
2022/10/14 11:58:33;;;;;;;;;;;;;;;20.91;67.95;100112.91;4955105;28;20058;-88
2022/10/14 12:01:00;;;;;;;2.65;1.67;;;;;;;20.73;69.07;100096.44;4990163;28;19914;-88
2022/10/14 12:04:15;;;;;;;2.65;2.35;;;;;;;20.94;69.22;100103.44;4990419;28;20491;-88
2022/10/14 12:06:54;;;;;;;24.27;2.25;;;;;;;21.11;66.31;100095.78;5006777;28;20049;-88
2022/10/14 12:09:28;;;;;;;3.10;2.28;;;;;;;20.40;67.60;100086.53;4976222;28;20132;-88
2022/10/14 12:12:02;;;;;;;3.88;3.58;;;;;;;20.25;67.26;100096.41;4992957;28;20042;-87
2022/10/14 12:14:37;;;;;;;2.97;2.38;;;;;;;20.12;68.94;100093.22;4993282;28;20049;-88
2022/10/14 12:17:05;;;;;;;2.58;1.80;;;;;;;20.29;70.00;100091.34;4977066;28;20420;-87
2022/10/14 12:19:31;;;;;;;4.55;2.75;;;;;;;20.40;69.27;100092.16;4993272;28;20038;-87
2022/10/14 12:22:15;;;;;;;2.53;2.33;;;;;;;20.44;69.05;100089.88;4990850;28;20038;-89
2022/10/14 12:24:46;;;;;;;5.13;2.13;;;;;;;20.44;68.96;100083.47;4992168;28;20081;-87